createdAt,value
2023-04-24T00:02:19.965Z,7.11
2023-04-24T00:04:48.416Z,7.09
2023-04-24T00:07:17.733Z,7.06
2023-04-24T00:09:46.107Z,7.00
2023-04-24T00:12:14.376Z,6.90
2023-04-24T00:14:42.649Z,6.83
2023-04-24T00:17:12.341Z,6.75
2023-04-24T00:19:40.910Z,6.73
2023-04-24T00:22:09.638Z,6.66
2023-04-24T00:24:37.843Z,6.61
2023-04-24T00:27:06.202Z,6.59
2023-04-24T00:29:34.508Z,6.46
2023-04-24T00:32:02.852Z,6.41
2023-04-24T00:34:33.638Z,6.50
2023-04-24T00:37:02.117Z,6.49
2023-04-24T00:39:30.452Z,6.63
2023-04-24T00:41:59.038Z,6.76
2023-04-24T00:44:27.452Z,6.83
2023-04-24T00:46:56.967Z,6.94
2023-04-24T00:49:25.434Z,6.95
2023-04-24T00:51:55.232Z,6.96
2023-04-24T00:54:23.453Z,7.04
2023-04-24T00:56:52.460Z,7.13
2023-04-24T00:59:21.051Z,7.02
2023-04-24T01:01:49.741Z,6.98
2023-04-24T01:04:20.322Z,6.92
2023-04-24T01:06:48.714Z,6.90
2023-04-24T01:09:20.231Z,6.92
2023-04-24T01:11:49.266Z,6.91
2023-04-24T01:14:17.590Z,6.94
2023-04-24T01:16:45.962Z,6.95
2023-04-24T01:19:15.961Z,6.97
2023-04-24T01:21:46.278Z,6.98
2023-04-24T01:24:16.323Z,6.83
2023-04-24T01:26:44.721Z,6.69
2023-04-24T01:29:13.606Z,6.63
2023-04-24T01:31:42.223Z,6.60
2023-04-24T01:34:10.597Z,6.55
2023-04-24T01:36:40.124Z,6.54
2023-04-24T01:39:08.738Z,6.50
2023-04-24T01:41:38.630Z,6.47
2023-04-24T01:44:07.277Z,6.47
2023-04-24T01:46:36.908Z,6.40
2023-04-24T01:49:05.250Z,6.41
2023-04-24T01:51:33.545Z,6.44
2023-04-24T01:54:01.757Z,6.55
2023-04-24T01:56:32.012Z,6.65
2023-04-24T01:59:03.197Z,6.66
2023-04-24T02:01:37.222Z,6.65
2023-04-24T02:04:05.987Z,6.72
2023-04-24T02:06:34.852Z,6.79
2023-04-24T02:09:04.364Z,6.75
2023-04-24T02:11:32.838Z,6.78
2023-04-24T02:14:02.498Z,6.83
2023-04-24T02:16:33.477Z,6.94
2023-04-24T02:19:02.188Z,7.02
2023-04-24T02:21:31.841Z,6.98
2023-04-24T02:24:00.225Z,6.90
2023-04-24T02:26:28.475Z,6.91
2023-04-24T02:28:56.888Z,6.98
2023-04-24T02:31:26.608Z,7.06
2023-04-24T02:33:54.878Z,7.01
2023-04-24T02:36:23.393Z,6.90
2023-04-24T02:38:51.622Z,6.79
2023-04-24T02:41:21.264Z,6.79
2023-04-24T02:43:49.521Z,6.79
2023-04-24T02:46:17.933Z,6.78
2023-04-24T02:48:47.729Z,6.76
2023-04-24T02:51:16.006Z,6.74
2023-04-24T02:53:44.525Z,6.74
2023-04-24T02:56:13.350Z,6.80
2023-04-24T02:58:42.087Z,6.77
2023-04-24T03:01:11.288Z,6.75
2023-04-24T03:03:40.171Z,6.84
2023-04-24T03:06:10.210Z,6.88
2023-04-24T03:08:38.786Z,6.84
2023-04-24T03:11:07.063Z,6.86
2023-04-24T03:13:36.029Z,6.89
2023-04-24T03:16:04.338Z,6.91
2023-04-24T03:18:32.926Z,6.93
2023-04-24T03:21:01.231Z,6.91
2023-04-24T03:23:30.993Z,6.91
2023-04-24T03:25:59.409Z,7.02
2023-04-24T03:28:27.904Z,7.14
2023-04-24T03:30:56.145Z,7.28
2023-04-24T03:33:24.583Z,7.64
2023-04-24T03:35:52.827Z,8.17
2023-04-24T03:38:21.034Z,8.65
2023-04-24T03:40:51.000Z,9.40
2023-04-24T03:43:19.294Z,10.03
2023-04-24T03:45:47.722Z,10.62
2023-04-24T03:48:15.982Z,11.10
2023-04-24T03:50:44.703Z,11.51
2023-04-24T03:53:12.915Z,12.05
2023-04-24T03:55:41.297Z,12.47
2023-04-24T03:58:11.356Z,13.02
2023-04-24T04:00:41.415Z,13.71
2023-04-24T04:03:09.829Z,14.01
2023-04-24T04:05:38.469Z,14.32
2023-04-24T04:08:06.922Z,14.80
2023-04-24T04:10:35.360Z,14.61
2023-04-24T04:13:03.736Z,14.79
2023-04-24T04:15:33.731Z,15.38
2023-04-24T04:18:01.967Z,16.03
2023-04-24T04:20:30.397Z,16.06
2023-04-24T04:22:58.664Z,15.76
2023-04-24T04:25:26.942Z,16.11
2023-04-24T04:27:55.484Z,16.72
2023-04-24T04:30:24.612Z,16.08
2023-04-24T04:32:54.420Z,16.91
2023-04-24T04:35:23.259Z,17.74
2023-04-24T04:37:52.512Z,18.35
2023-04-24T04:40:20.800Z,18.90
2023-04-24T04:42:49.103Z,17.46
2023-04-24T04:45:17.871Z,16.40
2023-04-24T04:47:46.598Z,16.60
2023-04-24T04:50:17.739Z,16.69
2023-04-24T04:52:46.196Z,17.45
2023-04-24T04:55:15.907Z,17.48
2023-04-24T04:57:44.218Z,19.50
2023-04-24T05:00:13.764Z,19.59
2023-04-24T05:02:42.762Z,19.17
2023-04-24T05:05:11.882Z,20.04
2023-04-24T05:07:41.550Z,17.82
2023-04-24T05:10:11.691Z,18.48
2023-04-24T05:12:39.918Z,20.05
2023-04-24T05:15:10.989Z,20.19
2023-04-24T05:17:40.993Z,21.18
2023-04-24T05:20:11.989Z,20.41
2023-04-24T05:22:41.900Z,19.84
2023-04-24T05:25:10.590Z,18.08
2023-04-24T05:27:38.857Z,17.97
2023-04-24T05:30:08.611Z,17.92
2023-04-24T05:32:36.849Z,17.40
2023-04-24T05:35:05.543Z,19.06
2023-04-24T05:37:33.910Z,20.36
2023-04-24T05:40:06.312Z,21.12
2023-04-24T05:42:34.600Z,21.75
2023-04-24T05:45:03.738Z,21.80
2023-04-24T05:47:32.639Z,21.84
2023-04-24T05:50:01.139Z,22.29
2023-04-24T05:52:29.420Z,22.21
2023-04-24T05:54:57.603Z,22.14
2023-04-24T05:57:27.486Z,21.98
2023-04-24T05:59:55.850Z,22.23
2023-04-24T06:02:24.432Z,21.81
2023-04-24T06:04:53.017Z,22.10
2023-04-24T06:07:21.452Z,22.89
2023-04-24T06:09:49.930Z,21.27
2023-04-24T06:12:18.201Z,21.88
2023-04-24T06:14:47.879Z,21.75
2023-04-24T06:17:16.473Z,20.95
2023-04-24T06:19:45.121Z,21.74
2023-04-24T06:22:13.515Z,19.79
2023-04-24T06:24:42.372Z,20.75
2023-04-24T06:27:10.978Z,21.21
2023-04-24T06:29:39.217Z,20.50
2023-04-24T06:32:09.043Z,21.98
2023-04-24T06:34:37.699Z,21.25
2023-04-24T06:37:06.121Z,20.11
2023-04-24T06:39:34.384Z,21.37
2023-04-24T06:42:02.735Z,21.66
2023-04-24T06:44:30.926Z,21.82
2023-04-24T06:46:59.294Z,20.74
2023-04-24T06:49:28.976Z,20.54
2023-04-24T06:51:57.390Z,20.84
2023-04-24T06:54:25.687Z,20.66
2023-04-24T06:56:53.954Z,21.40
2023-04-24T06:59:22.365Z,21.23
2023-04-24T07:01:51.372Z,21.78
2023-04-24T07:04:21.250Z,21.68
2023-04-24T07:06:52.476Z,21.75
2023-04-24T07:09:21.107Z,21.42
2023-04-24T07:11:49.655Z,20.55
2023-04-24T07:14:18.273Z,20.69
2023-04-24T07:16:47.060Z,21.25
2023-04-24T07:19:16.054Z,19.73
2023-04-24T07:21:44.329Z,19.78
2023-04-24T07:24:14.021Z,20.33
2023-04-24T07:26:42.677Z,19.83
2023-04-24T07:29:11.532Z,19.93
2023-04-24T07:31:39.909Z,19.19
2023-04-24T07:34:08.181Z,18.79
2023-04-24T07:36:36.954Z,17.54
2023-04-24T07:39:05.526Z,16.98
2023-04-24T07:41:35.203Z,16.33
2023-04-24T07:44:03.516Z,16.15
2023-04-24T07:46:32.777Z,15.94
2023-04-24T07:49:12.476Z,15.57
2023-04-24T07:51:42.617Z,14.84
2023-04-24T07:54:11.407Z,15.31
2023-04-24T07:56:41.270Z,14.45
2023-04-24T07:59:10.831Z,13.71
2023-04-24T08:01:39.184Z,13.38
2023-04-24T08:04:07.907Z,14.00
2023-04-24T08:06:36.793Z,14.27
2023-04-24T08:09:05.561Z,14.62
2023-04-24T08:11:34.112Z,14.78
2023-04-24T08:14:03.796Z,14.11
2023-04-24T08:16:32.150Z,13.93
2023-04-24T08:19:00.607Z,13.51
2023-04-24T08:21:29.061Z,13.30
2023-04-24T08:23:57.232Z,13.30
2023-04-24T08:26:25.843Z,13.50
2023-04-24T08:28:54.365Z,13.63
2023-04-24T08:31:26.162Z,14.01
2023-04-24T08:33:54.415Z,14.30
2023-04-24T08:36:23.796Z,14.47
2023-04-24T08:38:55.162Z,13.62
2023-04-24T08:41:27.210Z,14.31
2023-04-24T08:43:56.510Z,14.39
2023-04-24T08:46:27.039Z,13.77
2023-04-24T08:48:55.632Z,13.59
2023-04-24T08:51:24.943Z,13.95
2023-04-24T08:53:55.950Z,13.69
2023-04-24T08:56:25.418Z,13.57
2023-04-24T08:58:54.999Z,13.93
2023-04-24T09:01:23.486Z,14.10
2023-04-24T09:03:55.794Z,14.18
2023-04-24T09:06:26.387Z,13.67
2023-04-24T09:08:56.950Z,13.44
2023-04-24T09:11:27.064Z,13.95
2023-04-24T09:13:56.635Z,14.57
2023-04-24T09:16:25.498Z,14.57
2023-04-24T09:18:56.050Z,14.82
2023-04-24T09:21:25.124Z,14.65
2023-04-24T09:24:03.988Z,13.90
2023-04-24T09:26:34.172Z,14.27
2023-04-24T09:29:02.964Z,14.56
2023-04-24T09:31:31.766Z,14.83
2023-04-24T09:34:06.478Z,14.18
2023-04-24T09:36:38.850Z,14.26
2023-04-24T09:39:09.450Z,14.27
2023-04-24T09:41:47.062Z,14.24
2023-04-24T09:44:17.324Z,14.46
2023-04-24T09:46:47.357Z,14.37
2023-04-24T09:49:18.712Z,14.43
2023-04-24T09:51:47.016Z,13.77
2023-04-24T09:54:21.214Z,13.98
2023-04-24T09:56:50.873Z,13.56
2023-04-24T09:59:20.226Z,13.49
2023-04-24T10:01:50.373Z,13.87
2023-04-24T10:04:21.549Z,13.96
2023-04-24T10:06:51.210Z,14.04
2023-04-24T10:09:20.646Z,14.26
2023-04-24T10:11:52.006Z,14.32
2023-04-24T10:14:21.718Z,13.92
2023-04-24T10:16:50.727Z,13.77
2023-04-24T10:19:21.217Z,12.98
2023-04-24T10:21:49.624Z,12.91
2023-04-24T10:24:19.544Z,13.45
2023-04-24T10:26:49.407Z,13.32
2023-04-24T10:29:22.604Z,13.53
2023-04-24T10:31:50.979Z,13.60
2023-04-24T10:34:23.377Z,13.77
2023-04-24T10:36:57.778Z,14.11
2023-04-24T10:39:27.234Z,14.09
2023-04-24T10:41:58.515Z,14.21
2023-04-24T10:44:27.824Z,13.52
2023-04-24T10:46:57.797Z,13.97
2023-04-24T10:49:32.522Z,13.97
2023-04-24T10:52:06.256Z,14.04
2023-04-24T10:54:38.537Z,13.80
2023-04-24T10:57:33.827Z,14.10
2023-04-24T11:00:20.657Z,13.95
2023-04-24T11:02:54.231Z,14.01
2023-04-24T11:05:24.908Z,13.99
2023-04-24T11:08:15.713Z,14.16
2023-04-24T11:10:47.447Z,14.38
2023-04-24T11:13:17.907Z,14.18
2023-04-24T11:15:46.308Z,14.27
2023-04-24T11:18:19.601Z,14.43
2023-04-24T11:20:49.333Z,14.00
2023-04-24T11:23:18.829Z,14.04
2023-04-24T11:25:47.821Z,14.08
2023-04-24T11:28:18.669Z,13.93
2023-04-24T11:30:47.063Z,13.37
2023-04-24T11:33:22.758Z,13.56
2023-04-24T11:35:53.707Z,13.70
2023-04-24T11:38:24.547Z,13.41
2023-04-24T11:40:54.511Z,13.58
2023-04-24T11:43:23.881Z,13.06
2023-04-24T11:45:52.265Z,13.31
2023-04-24T11:48:23.776Z,13.67
2023-04-24T11:50:54.081Z,13.44
2023-04-24T11:53:23.203Z,13.68
2023-04-24T11:55:51.537Z,13.41
2023-04-24T11:58:23.554Z,13.43
2023-04-24T12:00:59.367Z,13.15
2023-04-24T12:03:28.032Z,12.87
2023-04-24T12:06:08.958Z,13.13
2023-04-24T12:08:38.632Z,12.92
2023-04-24T12:11:09.689Z,12.51
2023-04-24T12:13:38.381Z,12.66
2023-04-24T12:16:07.344Z,13.05
2023-04-24T12:18:35.685Z,13.22
2023-04-24T12:21:25.009Z,13.42
2023-04-24T12:23:53.274Z,13.18
2023-04-24T12:26:23.729Z,13.24
2023-04-24T12:28:52.325Z,13.02
2023-04-24T12:31:23.671Z,13.01
2023-04-24T12:33:52.211Z,12.85
2023-04-24T12:36:20.541Z,12.49
2023-04-24T12:38:55.359Z,12.65
2023-04-24T12:41:23.626Z,12.86
2023-04-24T12:43:56.625Z,13.02
2023-04-24T12:46:25.097Z,13.15
2023-04-24T12:48:53.580Z,13.15
2023-04-24T12:51:21.901Z,13.04
2023-04-24T12:53:51.618Z,12.93
2023-04-24T12:56:19.981Z,13.03
2023-04-24T12:58:48.558Z,13.20
2023-04-24T13:01:16.963Z,13.26
2023-04-24T13:03:46.313Z,13.14
2023-04-24T13:06:15.013Z,13.28
2023-04-24T13:08:43.526Z,12.98
2023-04-24T13:11:13.249Z,12.77
2023-04-24T13:13:41.731Z,12.89
2023-04-24T13:16:10.289Z,12.74
2023-04-24T13:18:38.592Z,12.70
2023-04-24T13:21:06.972Z,12.85
2023-04-24T13:23:35.749Z,12.80
2023-04-24T13:26:04.220Z,12.63
2023-04-24T13:28:33.885Z,12.81
2023-04-24T13:31:02.283Z,12.66
2023-04-24T13:33:31.182Z,12.50
2023-04-24T13:35:59.698Z,12.46
2023-04-24T13:38:27.969Z,12.70
2023-04-24T13:40:56.340Z,12.37
2023-04-24T13:43:24.965Z,12.49
2023-04-24T13:45:54.778Z,12.71
2023-04-24T13:48:23.202Z,12.70
2023-04-24T13:50:51.518Z,12.86
2023-04-24T13:53:20.009Z,12.85
2023-04-24T13:55:48.347Z,12.43
2023-04-24T13:58:17.064Z,12.49
2023-04-24T14:00:45.411Z,12.54
2023-04-24T14:03:15.287Z,12.64
2023-04-24T14:05:44.500Z,12.43
2023-04-24T14:08:12.982Z,12.58
2023-04-24T14:10:41.383Z,12.58
2023-04-24T14:13:09.659Z,12.50
2023-04-24T14:15:38.297Z,12.51
2023-04-24T14:18:06.948Z,12.52
2023-04-24T14:20:36.692Z,12.39
2023-04-24T14:23:05.507Z,12.22
2023-04-24T14:25:33.810Z,12.36
2023-04-24T14:28:02.151Z,12.32
2023-04-24T14:30:30.545Z,12.29
2023-04-24T14:32:59.053Z,12.26
2023-04-24T14:35:28.629Z,12.01
2023-04-24T14:37:59.343Z,12.06
2023-04-24T14:40:48.587Z,12.10
2023-04-24T14:43:16.035Z,12.04
2023-04-24T14:45:44.348Z,11.92
2023-04-24T14:48:12.640Z,12.03
2023-04-24T14:50:41.107Z,11.89
2023-04-24T14:53:10.858Z,11.83
2023-04-24T14:55:39.215Z,11.85
2023-04-24T14:58:07.488Z,11.82
2023-04-24T15:00:35.950Z,11.88
2023-04-24T15:03:04.517Z,11.61
2023-04-24T15:05:33.395Z,11.74
2023-04-24T15:08:01.947Z,11.78
2023-04-24T15:10:31.752Z,11.77
2023-04-24T15:13:00.296Z,11.70
2023-04-24T15:15:28.612Z,11.83
2023-04-24T15:17:57.002Z,11.87
2023-04-24T15:20:25.381Z,11.95
2023-04-24T15:22:53.713Z,11.97
2023-04-24T15:25:22.119Z,12.04
2023-04-24T15:27:51.881Z,11.83
2023-04-24T15:30:20.178Z,11.81
2023-04-24T15:32:48.576Z,11.70
2023-04-24T15:35:17.752Z,11.62
2023-04-24T15:37:46.510Z,11.53
2023-04-24T15:40:16.904Z,11.49
2023-04-24T15:42:45.773Z,11.59
2023-04-24T15:45:15.564Z,11.63
2023-04-24T15:47:43.869Z,11.49
2023-04-24T15:50:14.723Z,11.43
2023-04-24T15:52:43.502Z,11.48
2023-04-24T15:55:12.319Z,11.39
2023-04-24T15:57:40.871Z,11.39
2023-04-24T16:00:11.252Z,11.51
2023-04-24T16:02:41.609Z,11.39
2023-04-24T16:05:11.263Z,11.33
2023-04-24T16:07:40.515Z,11.32
2023-04-24T16:10:09.662Z,11.30
2023-04-24T16:12:38.345Z,11.20
2023-04-24T16:15:08.040Z,11.22
2023-04-24T16:17:36.417Z,11.33
2023-04-24T16:20:07.762Z,11.38
2023-04-24T16:22:36.252Z,11.27
2023-04-24T16:25:04.991Z,11.15
2023-04-24T16:27:33.546Z,11.15
2023-04-24T16:30:02.257Z,11.17
2023-04-24T16:32:30.999Z,11.06
2023-04-24T16:34:59.470Z,11.10
2023-04-24T16:37:30.824Z,11.10
2023-04-24T16:39:59.454Z,11.05
2023-04-24T16:42:27.950Z,11.03
2023-04-24T16:44:56.394Z,10.95
2023-04-24T16:47:25.021Z,10.91
2023-04-24T16:49:53.553Z,10.95
2023-04-24T16:52:22.197Z,10.91
2023-04-24T16:54:52.172Z,10.86
2023-04-24T16:57:20.671Z,10.81
2023-04-24T16:59:49.353Z,10.79
2023-04-24T17:02:17.933Z,10.64
2023-04-24T17:04:46.690Z,10.71
2023-04-24T17:07:15.609Z,10.70
2023-04-24T17:09:44.076Z,10.68
2023-04-24T17:12:13.977Z,10.66
2023-04-24T17:14:42.634Z,10.63
2023-04-24T17:17:11.547Z,10.59
2023-04-24T17:19:40.455Z,10.52
2023-04-24T17:22:09.022Z,10.55
2023-04-24T17:24:37.556Z,10.45
2023-04-24T17:27:14.508Z,10.48
2023-04-24T17:29:45.406Z,10.41
2023-04-24T17:32:14.008Z,10.42
2023-04-24T17:34:42.973Z,10.39
2023-04-24T17:37:11.642Z,10.40
2023-04-24T17:39:40.802Z,10.40
2023-04-24T17:42:09.176Z,10.39
2023-04-24T17:44:37.546Z,10.33
2023-04-24T17:47:07.301Z,10.28
2023-04-24T17:49:37.492Z,10.25
2023-04-24T17:52:06.008Z,10.27
2023-04-24T17:54:34.357Z,10.24
2023-04-24T17:57:03.105Z,10.21
2023-04-24T17:59:31.525Z,10.17
2023-04-24T18:02:00.037Z,10.20
2023-04-24T18:04:30.164Z,10.16
2023-04-24T18:06:58.695Z,10.17
2023-04-24T18:09:27.055Z,10.20
2023-04-24T18:11:57.454Z,10.19
2023-04-24T18:14:28.415Z,10.18
2023-04-24T18:16:58.150Z,10.15
2023-04-24T18:19:26.664Z,10.13
2023-04-24T18:21:56.481Z,10.13
2023-04-24T18:24:25.047Z,10.07
2023-04-24T18:26:53.470Z,10.03
2023-04-24T18:29:22.127Z,10.10
2023-04-24T18:31:50.596Z,10.12
2023-04-24T18:34:19.168Z,10.10
2023-04-24T18:36:47.572Z,10.11
2023-04-24T18:39:17.277Z,10.15
2023-04-24T18:41:45.599Z,10.14
2023-04-24T18:44:15.319Z,10.16
2023-04-24T18:46:43.942Z,10.16
2023-04-24T18:49:12.414Z,10.20
2023-04-24T18:51:52.485Z,10.25
2023-04-24T18:54:26.185Z,10.20
2023-04-24T18:56:54.582Z,10.21
2023-04-24T18:59:22.978Z,10.22
2023-04-24T19:01:51.399Z,10.24
2023-04-24T19:04:20.962Z,10.26
2023-04-24T19:06:49.482Z,10.22
2023-04-24T19:09:17.930Z,10.24
2023-04-24T19:11:47.839Z,10.28
2023-04-24T19:14:16.334Z,10.31
2023-04-24T19:16:44.763Z,10.38
2023-04-24T19:19:13.305Z,10.44
2023-04-24T19:21:41.733Z,10.41
2023-04-24T19:24:11.350Z,10.38
2023-04-24T19:26:39.929Z,10.37
2023-04-24T19:29:09.719Z,10.37
2023-04-24T19:31:38.058Z,10.41
2023-04-24T19:34:06.755Z,10.41
2023-04-24T19:36:35.218Z,10.42
2023-04-24T19:39:04.128Z,10.36
2023-04-24T19:41:32.438Z,10.36
2023-04-24T19:44:00.958Z,10.39
2023-04-24T19:46:30.884Z,10.33
2023-04-24T19:48:59.208Z,10.31
2023-04-24T19:51:27.768Z,10.33
2023-04-24T19:53:56.929Z,10.27
2023-04-24T19:56:25.367Z,10.28
2023-04-24T19:58:53.680Z,10.25
2023-04-24T20:01:22.201Z,10.20
2023-04-24T20:03:52.092Z,10.21
2023-04-24T20:06:20.594Z,10.23
2023-04-24T20:08:49.283Z,10.21
2023-04-24T20:11:17.951Z,10.23
2023-04-24T20:13:46.373Z,10.26
2023-04-24T20:16:15.305Z,10.23
2023-04-24T20:18:44.781Z,10.20
2023-04-24T20:21:15.022Z,10.23
2023-04-24T20:23:43.363Z,10.23
2023-04-24T20:26:11.652Z,10.24
2023-04-24T20:28:39.965Z,10.28
2023-04-24T20:31:08.496Z,10.31
2023-04-24T20:33:41.681Z,10.29
2023-04-24T20:36:10.803Z,10.23
2023-04-24T20:38:40.651Z,10.26
2023-04-24T20:41:10.500Z,10.27
2023-04-24T20:43:38.805Z,10.23
2023-04-24T20:46:07.293Z,10.22
2023-04-24T20:48:35.686Z,10.21
2023-04-24T20:51:04.032Z,10.23
2023-04-24T20:53:32.475Z,10.20
2023-04-24T20:56:02.602Z,10.16
2023-04-24T20:58:31.109Z,10.11
2023-04-24T21:00:59.410Z,10.08
2023-04-24T21:03:28.040Z,10.07
2023-04-24T21:05:56.570Z,10.06
2023-04-24T21:08:24.902Z,10.16
2023-04-24T21:10:53.234Z,10.18
2023-04-24T21:13:23.117Z,10.29
2023-04-24T21:15:52.010Z,10.28
2023-04-24T21:18:20.814Z,10.33
2023-04-24T21:20:50.158Z,10.30
2023-04-24T21:23:18.597Z,10.34
2023-04-24T21:25:47.240Z,10.34
2023-04-24T21:28:15.732Z,10.34
2023-04-24T21:30:45.618Z,10.35
2023-04-24T21:33:14.066Z,10.37
2023-04-24T21:35:42.304Z,10.42
2023-04-24T21:38:10.578Z,10.42
2023-04-24T21:40:38.951Z,10.45
2023-04-24T21:43:07.344Z,10.48
2023-04-24T21:45:35.597Z,10.52
2023-04-24T21:48:05.568Z,10.54
2023-04-24T21:50:34.014Z,10.58
2023-04-24T21:53:02.403Z,10.62
2023-04-24T21:55:30.958Z,10.73
2023-04-24T21:57:59.458Z,10.67
2023-04-24T22:00:28.038Z,10.67
2023-04-24T22:02:56.406Z,10.56
2023-04-24T22:05:26.193Z,10.51
2023-04-24T22:07:54.470Z,10.53
2023-04-24T22:10:23.165Z,10.52
2023-04-24T22:12:51.425Z,10.53
2023-04-24T22:15:19.814Z,10.52
2023-04-24T22:17:49.890Z,10.55
2023-04-24T22:20:18.395Z,10.52
2023-04-24T22:22:48.734Z,10.51
2023-04-24T22:25:17.072Z,10.47
2023-04-24T22:27:45.581Z,10.50
2023-04-24T22:30:14.414Z,10.62
2023-04-24T22:32:42.812Z,10.67
2023-04-24T22:35:11.198Z,10.66
2023-04-24T22:37:39.529Z,10.56
2023-04-24T22:40:11.032Z,10.51
2023-04-24T22:42:39.348Z,10.49
2023-04-24T22:45:11.408Z,10.48
2023-04-24T22:47:39.834Z,10.48
2023-04-24T22:50:10.722Z,10.52
2023-04-24T22:52:41.144Z,10.52
2023-04-24T22:55:12.153Z,10.61
2023-04-24T22:57:40.508Z,10.62
2023-04-24T23:00:11.382Z,10.59
2023-04-24T23:02:41.489Z,10.56
2023-04-24T23:05:11.319Z,10.61
2023-04-24T23:07:40.064Z,10.51
2023-04-24T23:10:10.878Z,10.50
2023-04-24T23:12:39.599Z,10.54
2023-04-24T23:15:09.207Z,10.53
2023-04-24T23:17:37.576Z,10.53
2023-04-24T23:20:06.840Z,10.57
2023-04-24T23:22:35.105Z,10.59
2023-04-24T23:25:04.176Z,10.60
2023-04-24T23:27:34.305Z,10.55
2023-04-24T23:30:02.607Z,10.53
2023-04-24T23:32:31.049Z,10.46
2023-04-24T23:34:59.300Z,10.48
2023-04-24T23:37:27.821Z,10.52
2023-04-24T23:39:56.217Z,10.59
2023-04-24T23:42:24.730Z,10.56
2023-04-24T23:44:54.748Z,10.51
2023-04-24T23:47:23.067Z,10.45
2023-04-24T23:49:51.282Z,10.42
2023-04-24T23:52:20.656Z,10.42
2023-04-24T23:54:48.987Z,10.40
2023-04-24T23:57:17.204Z,10.38
2023-04-24T23:59:45.998Z,10.44
